aviador You're here:

KDET Decoded Metar

DETROIT in MI, USA
Report Time2017-06-25 12:53:00
UTC Time2017-06-25 13:58:25
Flight Rules vfr VFR
Wind280° at 09 Gusting to 14 kt
W.Decomp.*RWY 25: 7.4 kt HW 5.2 kt RCW
RWY 33: 6.4 kt HW 6.4 kt LCW
W.Rank280° ranks 10
Current wind is above 280° avg. (7.8)
Visibility9999 m
Phenomena:N/A
Clouds:Scattered 095 Hf
Expected CloudBase > 3,200 ft AGL from Temp-Dew spread
CeilingNone
Temp18°C (ISA +4)
Dew Point10°C (60% RH)
AAT14.8°C
QNH1016 hPa
Density Alt1,188 ft
Elevation623 ft
Report Wrong Elevation
Raw Report
METAR KDET 251253Z 28009G14KT 10SM SCT095 18/10 A3000 RMK AO2 RAE1154
SLP155 P0000 T01780100=

Extra information for KDET:More info

Metar Taf Metar & Taf Last 4 Metars F.Rules Stats Wind Profile Meteogram Temp Stats Airport Information Weather charts Add Link Nearby VenuesMetar ALERT Operation Metar Decoded Social comments

AIRNAV info for KDET